sensor_id;sensor_type;location;lat;lon;timestamp;pressure;altitude;pressure_sealevel;temperature;humidity
43125;BME280;49182;50.788;7.318;2023-05-01T00:01:06;100984.25;;;9.25;81.85
43125;BME280;49182;50.788;7.318;2023-05-01T00:03:32;100987.75;;;9.25;81.81
43125;BME280;49182;50.788;7.318;2023-05-01T00:06:00;100982.69;;;9.22;82.24
43125;BME280;49182;50.788;7.318;2023-05-01T00:08:28;100967.72;;;9.12;82.38
43125;BME280;49182;50.788;7.318;2023-05-01T00:10:55;100970.81;;;9.17;82.72
43125;BME280;49182;50.788;7.318;2023-05-01T00:13:22;100973.47;;;9.17;82.69
43125;BME280;49182;50.788;7.318;2023-05-01T00:15:48;100961.09;;;9.06;83.02
43125;BME280;49182;50.788;7.318;2023-05-01T00:18:15;100970.72;;;9.18;82.86
43125;BME280;49182;50.788;7.318;2023-05-01T00:20:42;100972.03;;;9.24;83.08
43125;BME280;49182;50.788;7.318;2023-05-01T00:23:08;100956.31;;;9.11;83.27
43125;BME280;49182;50.788;7.318;2023-05-01T00:25:36;100959.22;;;9.19;83.43
43125;BME280;49182;50.788;7.318;2023-05-01T00:28:03;100955.50;;;9.22;83.56
43125;BME280;49182;50.788;7.318;2023-05-01T00:30:31;100935.25;;;9.11;83.63
43125;BME280;49182;50.788;7.318;2023-05-01T00:32:58;100951.91;;;9.23;83.30
43125;BME280;49182;50.788;7.318;2023-05-01T00:35:25;100947.69;;;9.09;83.83
43125;BME280;49182;50.788;7.318;2023-05-01T00:37:51;100943.72;;;9.04;84.52
43125;BME280;49182;50.788;7.318;2023-05-01T00:40:18;100961.50;;;9.13;84.14
43125;BME280;49182;50.788;7.318;2023-05-01T00:42:46;100953.22;;;9.17;84.28
43125;BME280;49182;50.788;7.318;2023-05-01T00:45:13;100955.03;;;9.17;84.37
43125;BME280;49182;50.788;7.318;2023-05-01T00:47:39;100950.47;;;9.19;84.09
43125;BME280;49182;50.788;7.318;2023-05-01T00:50:06;100941.00;;;9.16;84.24
43125;BME280;49182;50.788;7.318;2023-05-01T00:52:34;100947.72;;;9.20;84.09
43125;BME280;49182;50.788;7.318;2023-05-01T00:55:01;100951.81;;;9.24;84.16
43125;BME280;49182;50.788;7.318;2023-05-01T00:57:27;100937.16;;;9.20;84.20
43125;BME280;49182;50.788;7.318;2023-05-01T00:59:55;100945.44;;;9.27;84.07
43125;BME280;49182;50.788;7.318;2023-05-01T01:02:23;100930.38;;;9.29;83.75
43125;BME280;49182;50.788;7.318;2023-05-01T01:04:49;100928.31;;;9.32;83.59
43125;BME280;49182;50.788;7.318;2023-05-01T01:07:19;100933.38;;;9.36;83.29
43125;BME280;49182;50.788;7.318;2023-05-01T01:10:01;100924.38;;;9.38;83.14
43125;BME280;49182;50.788;7.318;2023-05-01T01:12:33;100918.28;;;9.38;82.95
43125;BME280;49182;50.788;7.318;2023-05-01T01:15:10;100922.09;;;9.45;83.15
43125;BME280;49182;50.788;7.318;2023-05-01T01:17:43;100921.28;;;9.44;83.27
43125;BME280;49182;50.788;7.318;2023-05-01T01:20:29;100917.66;;;9.45;83.11
43125;BME280;49182;50.788;7.318;2023-05-01T01:23:17;100915.03;;;9.45;82.78
43125;BME280;49182;50.788;7.318;2023-05-01T01:26:13;100908.34;;;9.41;83.44
43125;BME280;49182;50.788;7.318;2023-05-01T01:29:16;100906.28;;;9.45;83.62
43125;BME280;49182;50.788;7.318;2023-05-01T01:31:56;100913.50;;;9.43;83.77
43125;BME280;49182;50.788;7.318;2023-05-01T01:34:31;100902.00;;;9.44;84.22
43125;BME280;49182;50.788;7.318;2023-05-01T01:37:02;100896.00;;;9.30;84.21
43125;BME280;49182;50.788;7.318;2023-05-01T01:39:37;100903.53;;;9.35;84.19
43125;BME280;49182;50.788;7.318;2023-05-01T01:42:09;100880.66;;;9.24;84.15
43125;BME280;49182;50.788;7.318;2023-05-01T01:44:42;100907.97;;;9.46;83.75
43125;BME280;49182;50.788;7.318;2023-05-01T01:47:14;100895.75;;;9.45;83.90
43125;BME280;49182;50.788;7.318;2023-05-01T01:49:45;100898.53;;;9.43;83.78
43125;BME280;49182;50.788;7.318;2023-05-01T01:52:14;100890.34;;;9.46;84.28
43125;BME280;49182;50.788;7.318;2023-05-01T01:54:47;100885.19;;;9.45;84.61
43125;BME280;49182;50.788;7.318;2023-05-01T01:57:17;100869.03;;;9.38;84.63
43125;BME280;49182;50.788;7.318;2023-05-01T01:59:46;100879.22;;;9.43;84.84
43125;BME280;49182;50.788;7.318;2023-05-01T02:02:16;100869.75;;;9.40;85.11
43125;BME280;49182;50.788;7.318;2023-05-01T02:04:47;100876.50;;;9.44;85.24
43125;BME280;49182;50.788;7.318;2023-05-01T02:07:14;100868.44;;;9.46;84.71
43125;BME280;49182;50.788;7.318;2023-05-01T02:09:43;100874.66;;;9.45;84.95
43125;BME280;49182;50.788;7.318;2023-05-01T02:12:11;100831.31;;;9.26;84.62
43125;BME280;49182;50.788;7.318;2023-05-01T02:14:41;100863.91;;;9.48;84.35
43125;BME280;49182;50.788;7.318;2023-05-01T02:17:08;100860.53;;;9.46;84.73
43125;BME280;49182;50.788;7.318;2023-05-01T02:19:37;100859.69;;;9.45;84.54
43125;BME280;49182;50.788;7.318;2023-05-01T02:22:06;100852.88;;;9.43;84.88
43125;BME280;49182;50.788;7.318;2023-05-01T02:24:34;100852.88;;;9.43;85.09
43125;BME280;49182;50.788;7.318;2023-05-01T02:27:06;100845.81;;;9.43;85.16
43125;BME280;49182;50.788;7.318;2023-05-01T02:29:33;100854.56;;;9.44;85.21
43125;BME280;49182;50.788;7.318;2023-05-01T02:32:00;100843.19;;;9.43;85.00
43125;BME280;49182;50.788;7.318;2023-05-01T02:34:27;100847.59;;;9.43;84.58
43125;BME280;49182;50.788;7.318;2023-05-01T02:36:54;100839.94;;;9.40;84.88
43125;BME280;49182;50.788;7.318;2023-05-01T02:39:22;100847.84;;;9.40;84.84
43125;BME280;49182;50.788;7.318;2023-05-01T02:41:51;100840.88;;;9.39;84.84
43125;BME280;49182;50.788;7.318;2023-05-01T02:44:20;100832.03;;;9.40;84.74
43125;BME280;49182;50.788;7.318;2023-05-01T02:46:48;100833.72;;;9.41;84.82
43125;BME280;49182;50.788;7.318;2023-05-01T02:49:18;100819.94;;;9.37;85.07
43125;BME280;49182;50.788;7.318;2023-05-01T02:51:46;100829.38;;;9.40;85.15
43125;BME280;49182;50.788;7.318;2023-05-01T02:54:13;100819.94;;;9.37;85.15
43125;BME280;49182;50.788;7.318;2023-05-01T02:56:43;100826.88;;;9.38;85.35
43125;BME280;49182;50.788;7.318;2023-05-01T02:59:09;100798.28;;;9.22;85.47
43125;BME280;49182;50.788;7.318;2023-05-01T03:01:36;100823.75;;;9.33;85.51
43125;BME280;49182;50.788;7.318;2023-05-01T03:04:03;100819.59;;;9.30;85.92
43125;BME280;49182;50.788;7.318;2023-05-01T03:06:29;100812.88;;;9.26;86.11
43125;BME280;49182;50.788;7.318;2023-05-01T03:08:56;100792.91;;;9.13;86.04
43125;BME280;49182;50.788;7.318;2023-05-01T03:11:23;100818.75;;;9.30;85.87
43125;BME280;49182;50.788;7.318;2023-05-01T03:13:50;100803.44;;;9.24;85.99
43125;BME280;49182;50.788;7.318;2023-05-01T03:16:17;100798.28;;;9.22;86.15
43125;BME280;49182;50.788;7.318;2023-05-01T03:18:44;100792.06;;;9.23;86.52
43125;BME280;49182;50.788;7.318;2023-05-01T03:21:10;100806.16;;;9.33;86.45
43125;BME280;49182;50.788;7.318;2023-05-01T03:23:37;100810.59;;;9.33;86.37
43125;BME280;49182;50.788;7.318;2023-05-01T03:26:04;100809.28;;;9.27;86.73
43125;BME280;49182;50.788;7.318;2023-05-01T03:28:30;100799.94;;;9.23;87.15
43125;BME280;49182;50.788;7.318;2023-05-01T03:30:58;100795.63;;;9.22;87.03
43125;BME280;49182;50.788;7.318;2023-05-01T03:33:25;100796.59;;;9.21;86.80
43125;BME280;49182;50.788;7.318;2023-05-01T03:35:58;100796.59;;;9.21;87.06
43125;BME280;49182;50.788;7.318;2023-05-01T03:38:25;100786.06;;;9.21;87.02
43125;BME280;49182;50.788;7.318;2023-05-01T03:41:09;100796.84;;;9.18;87.20
43125;BME280;49182;50.788;7.318;2023-05-01T03:43:55;100789.28;;;9.14;87.15
43125;BME280;49182;50.788;7.318;2023-05-01T03:46:33;100793.75;;;9.13;87.36
43125;BME280;49182;50.788;7.318;2023-05-01T03:48:59;100792.75;;;9.14;87.51
43125;BME280;49182;50.788;7.318;2023-05-01T03:51:29;100785.69;;;9.15;87.69
43125;BME280;49182;50.788;7.318;2023-05-01T03:53:56;100776.97;;;9.14;88.04
43125;BME280;49182;50.788;7.318;2023-05-01T03:56:25;100781.53;;;9.12;88.03
43125;BME280;49182;50.788;7.318;2023-05-01T03:58:52;100786.78;;;9.12;88.46
43125;BME280;49182;50.788;7.318;2023-05-01T04:01:19;100783.22;;;9.13;87.95
43125;BME280;49182;50.788;7.318;2023-05-01T04:03:48;100785.59;;;9.16;87.75
43125;BME280;49182;50.788;7.318;2023-05-01T04:06:15;100781.28;;;9.15;88.20
43125;BME280;49182;50.788;7.318;2023-05-01T04:08:42;100776.84;;;9.16;88.36
43125;BME280;49182;50.788;7.318;2023-05-01T04:11:08;100772.41;;;9.16;88.02
43125;BME280;49182;50.788;7.318;2023-05-01T04:13:35;100769.19;;;9.13;87.76
43125;BME280;49182;50.788;7.318;2023-05-01T04:16:02;100775.78;;;9.18;87.89
43125;BME280;49182;50.788;7.318;2023-05-01T04:18:29;100769.06;;;9.14;87.65
43125;BME280;49182;50.788;7.318;2023-05-01T04:20:59;100777.69;;;9.16;87.65
43125;BME280;49182;50.788;7.318;2023-05-01T04:23:26;100766.91;;;9.19;87.56
43125;BME280;49182;50.788;7.318;2023-05-01T04:25:56;100773.84;;;9.20;87.55
43125;BME280;49182;50.788;7.318;2023-05-01T04:28:23;100768.81;;;9.17;87.41
43125;BME280;49182;50.788;7.318;2023-05-01T04:30:49;100768.81;;;9.17;87.77
43125;BME280;49182;50.788;7.318;2023-05-01T04:33:16;100768.00;;;9.17;87.76
43125;BME280;49182;50.788;7.318;2023-05-01T04:35:43;100759.34;;;9.15;87.83
43125;BME280;49182;50.788;7.318;2023-05-01T04:38:11;100773.13;;;9.18;87.53
43125;BME280;49182;50.788;7.318;2023-05-01T04:40:39;100767.88;;;9.18;87.60
43125;BME280;49182;50.788;7.318;2023-05-01T04:43:06;100765.47;;;9.15;87.78
43125;BME280;49182;50.788;7.318;2023-05-01T04:45:34;100767.63;;;9.21;87.61
43125;BME280;49182;50.788;7.318;2023-05-01T04:48:01;100758.28;;;9.17;87.73
43125;BME280;49182;50.788;7.318;2023-05-01T04:50:27;100768.09;;;9.26;87.63
43125;BME280;49182;50.788;7.318;2023-05-01T04:52:54;100773.69;;;9.33;87.48
43125;BME280;49182;50.788;7.318;2023-05-01T04:55:22;100772.63;;;9.36;87.32
43125;BME280;49182;50.788;7.318;2023-05-01T04:58:02;100771.19;;;9.43;86.62
43125;BME280;49182;50.788;7.318;2023-05-01T05:00:29;100771.41;;;9.40;87.05
43125;BME280;49182;50.788;7.318;2023-05-01T05:02:56;100771.19;;;9.43;87.21
43125;BME280;49182;50.788;7.318;2023-05-01T05:05:25;100769.38;;;9.43;87.39
43125;BME280;49182;50.788;7.318;2023-05-01T05:07:51;100773.81;;;9.43;87.75
43125;BME280;49182;50.788;7.318;2023-05-01T05:10:31;100767.34;;;9.47;87.86
43125;BME280;49182;50.788;7.318;2023-05-01T05:13:15;100756.56;;;9.50;87.76
43125;BME280;49182;50.788;7.318;2023-05-01T05:15:43;100768.41;;;9.55;87.68
43125;BME280;49182;50.788;7.318;2023-05-01T05:18:11;100770.41;;;9.63;87.16
43125;BME280;49182;50.788;7.318;2023-05-01T05:20:38;100762.25;;;9.66;87.19
43125;BME280;49182;50.788;7.318;2023-05-01T05:23:05;100766.19;;;9.71;86.91
43125;BME280;49182;50.788;7.318;2023-05-01T05:25:35;100772.19;;;9.73;86.84
43125;BME280;49182;50.788;7.318;2023-05-01T05:28:01;100777.91;;;9.79;86.35
43125;BME280;49182;50.788;7.318;2023-05-01T05:30:28;100767.38;;;9.79;86.78
43125;BME280;49182;50.788;7.318;2023-05-01T05:32:56;100765.56;;;9.79;86.81
43125;BME280;49182;50.788;7.318;2023-05-01T05:35:22;100767.81;;;9.84;86.93
43125;BME280;49182;50.788;7.318;2023-05-01T05:37:50;100756.88;;;9.88;86.95
43125;BME280;49182;50.788;7.318;2023-05-01T05:40:17;100775.19;;;10.01;86.54
43125;BME280;49182;50.788;7.318;2023-05-01T05:42:53;100763.88;;;10.10;85.57
43125;BME280;49182;50.788;7.318;2023-05-01T05:45:19;100761.81;;;10.13;85.44
43125;BME280;49182;50.788;7.318;2023-05-01T05:47:46;100768.28;;;10.21;84.98
43125;BME280;49182;50.788;7.318;2023-05-01T05:50:13;100762.38;;;10.28;84.77
43125;BME280;49182;50.788;7.318;2023-05-01T05:52:42;100759.09;;;10.36;84.52
43125;BME280;49182;50.788;7.318;2023-05-01T05:55:09;100751.63;;;10.41;84.57
43125;BME280;49182;50.788;7.318;2023-05-01T05:57:36;100742.16;;;10.38;84.61
43125;BME280;49182;50.788;7.318;2023-05-01T06:00:08;100759.78;;;10.59;83.90
43125;BME280;49182;50.788;7.318;2023-05-01T06:02:37;100761.06;;;10.64;84.44
43125;BME280;49182;50.788;7.318;2023-05-01T06:05:06;100752.88;;;10.67;84.08
43125;BME280;49182;50.788;7.318;2023-05-01T06:07:33;100767.28;;;10.84;83.68
43125;BME280;49182;50.788;7.318;2023-05-01T06:10:00;100730.13;;;10.76;83.38
43125;BME280;49182;50.788;7.318;2023-05-01T06:12:26;100752.16;;;10.95;83.25
43125;BME280;49182;50.788;7.318;2023-05-01T06:14:53;100752.06;;;11.07;83.27
43125;BME280;49182;50.788;7.318;2023-05-01T06:17:22;100745.81;;;11.17;81.86
43125;BME280;49182;50.788;7.318;2023-05-01T06:19:49;100753.50;;;11.30;80.82
43125;BME280;49182;50.788;7.318;2023-05-01T06:22:16;100759.94;;;11.37;80.31
43125;BME280;49182;50.788;7.318;2023-05-01T06:24:57;100759.81;;;11.48;79.91
43125;BME280;49182;50.788;7.318;2023-05-01T06:27:26;100753.72;;;11.57;79.03
43125;BME280;49182;50.788;7.318;2023-05-01T06:29:52;100751.91;;;11.67;78.15
43125;BME280;49182;50.788;7.318;2023-05-01T06:32:19;100737.28;;;11.73;76.64
43125;BME280;49182;50.788;7.318;2023-05-01T06:34:47;100752.78;;;11.87;76.21
43125;BME280;49182;50.788;7.318;2023-05-01T06:37:14;100751.81;;;11.98;73.97
43125;BME280;49182;50.788;7.318;2023-05-01T06:39:41;100746.13;;;12.02;74.77
43125;BME280;49182;50.788;7.318;2023-05-01T06:42:08;100746.50;;;12.17;74.72
43125;BME280;49182;50.788;7.318;2023-05-01T06:44:38;100746.63;;;12.25;74.79
43125;BME280;49182;50.788;7.318;2023-05-01T06:47:04;100746.78;;;12.33;75.04
43125;BME280;49182;50.788;7.318;2023-05-01T06:49:31;100740.34;;;12.45;74.41
43125;BME280;49182;50.788;7.318;2023-05-01T06:52:00;100748.25;;;12.55;75.05
43125;BME280;49182;50.788;7.318;2023-05-01T06:54:27;100739.72;;;12.61;75.05
43125;BME280;49182;50.788;7.318;2023-05-01T06:56:53;100737.72;;;12.73;75.39
43125;BME280;49182;50.788;7.318;2023-05-01T06:59:20;100741.88;;;12.85;75.93
43125;BME280;49182;50.788;7.318;2023-05-01T07:01:47;100744.34;;;12.96;75.88
43125;BME280;49182;50.788;7.318;2023-05-01T07:04:13;100735.50;;;13.05;75.23
43125;BME280;49182;50.788;7.318;2023-05-01T07:06:40;100725.16;;;13.12;73.87
43125;BME280;49182;50.788;7.318;2023-05-01T07:09:08;100747.00;;;13.33;73.15
43125;BME280;49182;50.788;7.318;2023-05-01T07:11:34;100738.50;;;13.47;71.12
43125;BME280;49182;50.788;7.318;2023-05-01T07:14:01;100742.59;;;13.59;68.20
43125;BME280;49182;50.788;7.318;2023-05-01T07:16:27;100735.25;;;13.71;66.30
43125;BME280;49182;50.788;7.318;2023-05-01T07:18:54;100738.69;;;13.81;64.56
43125;BME280;49182;50.788;7.318;2023-05-01T07:21:21;100737.16;;;13.96;62.50
43125;BME280;49182;50.788;7.318;2023-05-01T07:23:47;100731.28;;;14.10;58.35
43125;BME280;49182;50.788;7.318;2023-05-01T07:26:15;100731.97;;;14.12;59.13
43125;BME280;49182;50.788;7.318;2023-05-01T07:28:42;100734.53;;;14.22;58.19
43125;BME280;49182;50.788;7.318;2023-05-01T07:31:09;100733.44;;;14.33;56.95
43125;BME280;49182;50.788;7.318;2023-05-01T07:33:36;100735.44;;;14.31;56.35
43125;BME280;49182;50.788;7.318;2023-05-01T07:36:03;100730.63;;;14.34;56.45
43125;BME280;49182;50.788;7.318;2023-05-01T07:38:29;100729.81;;;14.34;56.83
43125;BME280;49182;50.788;7.318;2023-05-01T07:40:56;100725.09;;;14.45;56.02
43125;BME280;49182;50.788;7.318;2023-05-01T07:43:24;100726.75;;;14.46;55.27
43125;BME280;49182;50.788;7.318;2023-05-01T07:45:54;100730.75;;;14.50;55.43
43125;BME280;49182;50.788;7.318;2023-05-01T07:48:21;100730.09;;;14.48;56.33
43125;BME280;49182;50.788;7.318;2023-05-01T07:50:47;100727.31;;;14.58;55.32
43125;BME280;49182;50.788;7.318;2023-05-01T07:53:14;100721.56;;;14.63;55.00
43125;BME280;49182;50.788;7.318;2023-05-01T07:55:41;100669.03;;;14.31;55.48
43125;BME280;49182;50.788;7.318;2023-05-01T07:58:07;100724.41;;;14.69;55.33
43125;BME280;49182;50.788;7.318;2023-05-01T08:00:35;100716.97;;;14.73;54.21
43125;BME280;49182;50.788;7.318;2023-05-01T08:03:02;100722.50;;;14.87;54.64
43125;BME280;49182;50.788;7.318;2023-05-01T08:05:28;100717.56;;;14.92;55.31
43125;BME280;49182;50.788;7.318;2023-05-01T08:07:55;100717.09;;;15.05;54.16
43125;BME280;49182;50.788;7.318;2023-05-01T08:10:22;100696.81;;;15.04;52.22
43125;BME280;49182;50.788;7.318;2023-05-01T08:12:48;100721.78;;;15.19;52.46
43125;BME280;49182;50.788;7.318;2023-05-01T08:15:15;100718.00;;;15.22;54.10
43125;BME280;49182;50.788;7.318;2023-05-01T08:17:43;100716.34;;;15.37;54.36
43125;BME280;49182;50.788;7.318;2023-05-01T08:20:11;100701.06;;;15.39;52.57
43125;BME280;49182;50.788;7.318;2023-05-01T08:22:38;100717.25;;;15.62;53.31
43125;BME280;49182;50.788;7.318;2023-05-01T08:25:05;100717.81;;;15.73;53.33
43125;BME280;49182;50.788;7.318;2023-05-01T08:27:32;100717.63;;;15.83;52.21
43125;BME280;49182;50.788;7.318;2023-05-01T08:29:59;100713.81;;;15.94;52.14
43125;BME280;49182;50.788;7.318;2023-05-01T08:32:25;100717.31;;;16.02;51.44
43125;BME280;49182;50.788;7.318;2023-05-01T08:34:53;100716.47;;;16.10;51.83
43125;BME280;49182;50.788;7.318;2023-05-01T08:37:19;100708.81;;;16.15;50.19
43125;BME280;49182;50.788;7.318;2023-05-01T08:39:46;100714.94;;;16.24;51.11
43125;BME280;49182;50.788;7.318;2023-05-01T08:42:13;100714.63;;;16.35;50.94
43125;BME280;49182;50.788;7.318;2023-05-01T08:44:40;100721.75;;;16.42;50.62
43125;BME280;49182;50.788;7.318;2023-05-01T08:47:10;100714.56;;;16.51;50.80
43125;BME280;49182;50.788;7.318;2023-05-01T08:49:37;100715.44;;;16.60;51.68
43125;BME280;49182;50.788;7.318;2023-05-01T08:52:07;100719.72;;;16.69;51.14
43125;BME280;49182;50.788;7.318;2023-05-01T08:54:36;100705.19;;;16.79;50.69
43125;BME280;49182;50.788;7.318;2023-05-01T08:57:05;100707.31;;;16.92;51.42
43125;BME280;49182;50.788;7.318;2023-05-01T08:59:37;100707.25;;;17.08;50.22
43125;BME280;49182;50.788;7.318;2023-05-01T09:02:04;100703.06;;;17.14;50.05
43125;BME280;49182;50.788;7.318;2023-05-01T09:04:32;100706.16;;;17.25;48.79
43125;BME280;49182;50.788;7.318;2023-05-01T09:06:59;100701.16;;;17.22;47.95
43125;BME280;49182;50.788;7.318;2023-05-01T09:09:28;100699.69;;;17.20;48.95
43125;BME280;49182;50.788;7.318;2023-05-01T09:12:00;100698.44;;;17.30;49.34
43125;BME280;49182;50.788;7.318;2023-05-01T09:14:27;100700.72;;;17.42;49.52
43125;BME280;49182;50.788;7.318;2023-05-01T09:16:54;100687.31;;;17.50;47.97
43125;BME280;49182;50.788;7.318;2023-05-01T09:19:22;100687.28;;;17.58;47.69
43125;BME280;49182;50.788;7.318;2023-05-01T09:21:48;100694.41;;;17.65;48.28
43125;BME280;49182;50.788;7.318;2023-05-01T09:24:15;100689.84;;;17.74;49.20
43125;BME280;49182;50.788;7.318;2023-05-01T09:26:43;100681.06;;;17.88;48.07
43125;BME280;49182;50.788;7.318;2023-05-01T09:29:10;100690.31;;;18.00;48.73
43125;BME280;49182;50.788;7.318;2023-05-01T09:31:36;100679.34;;;18.10;48.12
43125;BME280;49182;50.788;7.318;2023-05-01T09:34:04;100679.38;;;18.25;47.57
43125;BME280;49182;50.788;7.318;2023-05-01T09:36:32;100676.72;;;18.39;47.88
43125;BME280;49182;50.788;7.318;2023-05-01T09:39:00;100682.47;;;18.51;47.31
43125;BME280;49182;50.788;7.318;2023-05-01T09:41:27;100654.50;;;18.53;47.74
43125;BME280;49182;50.788;7.318;2023-05-01T09:43:56;100677.47;;;18.77;48.18
43125;BME280;49182;50.788;7.318;2023-05-01T09:46:24;100665.28;;;18.89;46.56
43125;BME280;49182;50.788;7.318;2023-05-01T09:48:51;100668.63;;;18.91;45.82
43125;BME280;49182;50.788;7.318;2023-05-01T09:51:20;100671.59;;;18.82;44.95
43125;BME280;49182;50.788;7.318;2023-05-01T09:53:47;100672.03;;;18.85;45.33
43125;BME280;49182;50.788;7.318;2023-05-01T09:56:13;100670.28;;;18.92;44.69
43125;BME280;49182;50.788;7.318;2023-05-01T09:58:40;100669.88;;;19.10;45.21
43125;BME280;49182;50.788;7.318;2023-05-01T10:01:08;100639.25;;;19.13;44.44
43125;BME280;49182;50.788;7.318;2023-05-01T10:03:34;100659.84;;;19.33;44.87
43125;BME280;49182;50.788;7.318;2023-05-01T10:06:01;100654.78;;;19.45;43.78
43125;BME280;49182;50.788;7.318;2023-05-01T10:08:43;100635.91;;;19.47;44.42
43125;BME280;49182;50.788;7.318;2023-05-01T10:11:09;100649.72;;;19.71;44.52
43125;BME280;49182;50.788;7.318;2023-05-01T10:13:36;100657.13;;;19.91;43.36
43125;BME280;49182;50.788;7.318;2023-05-01T10:16:03;100655.75;;;20.01;43.55
43125;BME280;49182;50.788;7.318;2023-05-01T10:18:32;100652.09;;;20.09;43.14
43125;BME280;49182;50.788;7.318;2023-05-01T10:20:59;100647.75;;;20.08;43.16
43125;BME280;49182;50.788;7.318;2023-05-01T10:23:25;100649.66;;;20.14;42.87
43125;BME280;49182;50.788;7.318;2023-05-01T10:25:52;100649.22;;;20.10;42.44
43125;BME280;49182;50.788;7.318;2023-05-01T10:28:19;100644.59;;;19.98;42.94
43125;BME280;49182;50.788;7.318;2023-05-01T10:30:47;100650.50;;;20.14;42.43
43125;BME280;49182;50.788;7.318;2023-05-01T10:33:14;100605.00;;;19.93;42.75
43125;BME280;49182;50.788;7.318;2023-05-01T10:35:46;100641.19;;;20.38;43.16
43125;BME280;49182;50.788;7.318;2023-05-01T10:38:18;100641.06;;;20.53;41.92
43125;BME280;49182;50.788;7.318;2023-05-01T10:40:48;100643.00;;;20.66;41.65
43125;BME280;49182;50.788;7.318;2023-05-01T10:43:17;100635.44;;;20.89;42.12
43125;BME280;49182;50.788;7.318;2023-05-01T10:45:45;100639.03;;;21.09;41.59
43125;BME280;49182;50.788;7.318;2023-05-01T10:51:19;100637.47;;;21.28;40.33
43125;BME280;49182;50.788;7.318;2023-05-01T10:53:47;100624.88;;;21.35;40.53
43125;BME280;49182;50.788;7.318;2023-05-01T10:56:39;100626.75;;;21.61;41.10
43125;BME280;49182;50.788;7.318;2023-05-01T10:59:06;100618.06;;;21.85;41.91
43125;BME280;49182;50.788;7.318;2023-05-01T11:01:33;100625.75;;;22.01;40.58
43125;BME280;49182;50.788;7.318;2023-05-01T11:04:02;100625.72;;;21.68;37.34
43125;BME280;49182;50.788;7.318;2023-05-01T11:06:30;100626.75;;;21.80;38.19
43125;BME280;49182;50.788;7.318;2023-05-01T11:08:58;100618.72;;;22.00;36.62
43125;BME280;49182;50.788;7.318;2023-05-01T11:11:44;100621.19;;;22.08;36.49
43125;BME280;49182;50.788;7.318;2023-05-01T11:14:11;100620.59;;;22.00;36.58
43125;BME280;49182;50.788;7.318;2023-05-01T11:16:44;100609.19;;;22.04;35.91
43125;BME280;49182;50.788;7.318;2023-05-01T11:19:45;100606.94;;;22.08;36.81
43125;BME280;49182;50.788;7.318;2023-05-01T11:22:13;100606.50;;;21.98;38.53
43125;BME280;49182;50.788;7.318;2023-05-01T11:24:39;100610.03;;;21.98;38.46
43125;BME280;49182;50.788;7.318;2023-05-01T11:27:06;100603.19;;;21.89;37.79
43125;BME280;49182;50.788;7.318;2023-05-01T11:29:34;100608.38;;;21.91;38.28
43125;BME280;49182;50.788;7.318;2023-05-01T11:32:02;100596.19;;;22.01;39.18
43125;BME280;49182;50.788;7.318;2023-05-01T11:34:34;100600.69;;;22.27;38.70
43125;BME280;49182;50.788;7.318;2023-05-01T11:37:00;100600.00;;;22.51;36.95
43125;BME280;49182;50.788;7.318;2023-05-01T11:39:29;100597.72;;;22.48;36.08
43125;BME280;49182;50.788;7.318;2023-05-01T11:42:05;100591.31;;;22.43;35.81
43125;BME280;49182;50.788;7.318;2023-05-01T11:44:32;100597.56;;;22.30;35.93
43125;BME280;49182;50.788;7.318;2023-05-01T11:46:58;100600.84;;;22.45;36.27
43125;BME280;49182;50.788;7.318;2023-05-01T11:49:26;100594.56;;;22.65;36.83
43125;BME280;49182;50.788;7.318;2023-05-01T11:51:55;100595.19;;;22.60;36.50
43125;BME280;49182;50.788;7.318;2023-05-01T11:54:22;100589.16;;;22.71;36.94
43125;BME280;49182;50.788;7.318;2023-05-01T11:56:58;100592.28;;;22.62;36.63
43125;BME280;49182;50.788;7.318;2023-05-01T11:59:25;100587.28;;;22.65;35.87
43125;BME280;49182;50.788;7.318;2023-05-01T12:01:52;100597.66;;;22.75;36.08
43125;BME280;49182;50.788;7.318;2023-05-01T12:04:23;100600.19;;;22.56;33.82
43125;BME280;49182;50.788;7.318;2023-05-01T12:06:50;100597.84;;;22.73;34.54
43125;BME280;49182;50.788;7.318;2023-05-01T12:09:18;100595.16;;;22.67;34.83
43125;BME280;49182;50.788;7.318;2023-05-01T12:11:46;100606.38;;;22.64;34.33
43125;BME280;49182;50.788;7.318;2023-05-01T12:14:20;100596.66;;;22.56;33.73
43125;BME280;49182;50.788;7.318;2023-05-01T12:16:47;100595.19;;;22.60;33.57
43125;BME280;49182;50.788;7.318;2023-05-01T12:19:14;100597.47;;;22.56;34.15
43125;BME280;49182;50.788;7.318;2023-05-01T12:21:41;100587.72;;;22.75;34.20
43125;BME280;49182;50.788;7.318;2023-05-01T12:24:09;100591.91;;;23.03;34.42
43125;BME280;49182;50.788;7.318;2023-05-01T12:26:36;100594.97;;;23.13;34.24
43125;BME280;49182;50.788;7.318;2023-05-01T12:29:04;100592.31;;;23.06;33.45
43125;BME280;49182;50.788;7.318;2023-05-01T12:31:32;100597.81;;;23.18;32.39
43125;BME280;49182;50.788;7.318;2023-05-01T12:34:01;100596.69;;;23.01;31.94
43125;BME280;49182;50.788;7.318;2023-05-01T12:36:30;100589.91;;;23.23;32.95
43125;BME280;49182;50.788;7.318;2023-05-01T12:38:58;100589.91;;;23.23;33.71
43125;BME280;49182;50.788;7.318;2023-05-01T12:41:38;100590.44;;;23.38;32.70
43125;BME280;49182;50.788;7.318;2023-05-01T12:44:18;100586.81;;;23.57;33.05
43125;BME280;49182;50.788;7.318;2023-05-01T12:46:54;100595.44;;;23.34;30.83
43125;BME280;49182;50.788;7.318;2023-05-01T12:49:21;100590.63;;;23.12;30.31
43125;BME280;49182;50.788;7.318;2023-05-01T12:51:50;100591.47;;;23.06;31.12
43125;BME280;49182;50.788;7.318;2023-05-01T12:54:19;100595.84;;;23.38;33.04
43125;BME280;49182;50.788;7.318;2023-05-01T12:56:46;100587.59;;;23.58;33.54
43125;BME280;49182;50.788;7.318;2023-05-01T12:59:19;100591.03;;;23.71;32.08
43125;BME280;49182;50.788;7.318;2023-05-01T13:01:46;100591.94;;;23.59;33.75
43125;BME280;49182;50.788;7.318;2023-05-01T13:04:20;100592.69;;;23.41;32.86
43125;BME280;49182;50.788;7.318;2023-05-01T13:06:47;100588.56;;;23.38;32.58